sensor_id;sensor_type;location;lat;lon;timestamp;P1;durP1;ratioP1;P2;durP2;ratioP2
77384;SDS011;66443;49.122;8.346;2023-05-10T00:00:42;1.70;;;1.60;;
77384;SDS011;66443;49.122;8.346;2023-05-10T00:03:08;2.10;;;1.50;;
77384;SDS011;66443;49.122;8.346;2023-05-10T00:05:33;1.60;;;1.50;;
77384;SDS011;66443;49.122;8.346;2023-05-10T00:07:58;1.93;;;1.60;;
77384;SDS011;66443;49.122;8.346;2023-05-10T00:10:23;1.60;;;1.50;;
77384;SDS011;66443;49.122;8.346;2023-05-10T00:12:49;1.93;;;1.80;;
77384;SDS011;66443;49.122;8.346;2023-05-10T00:15:14;3.77;;;1.90;;
77384;SDS011;66443;49.122;8.346;2023-05-10T00:17:39;2.03;;;1.90;;
77384;SDS011;66443;49.122;8.346;2023-05-10T00:20:05;1.60;;;1.50;;
77384;SDS011;66443;49.122;8.346;2023-05-10T00:22:31;1.87;;;1.77;;
77384;SDS011;66443;49.122;8.346;2023-05-10T00:24:56;2.13;;;1.77;;
77384;SDS011;66443;49.122;8.346;2023-05-10T00:27:21;1.90;;;1.80;;
77384;SDS011;66443;49.122;8.346;2023-05-10T00:29:46;1.70;;;1.57;;
77384;SDS011;66443;49.122;8.346;2023-05-10T00:32:12;2.43;;;1.53;;
77384;SDS011;66443;49.122;8.346;2023-05-10T00:34:38;1.40;;;1.30;;
77384;SDS011;66443;49.122;8.346;2023-05-10T00:37:04;1.40;;;1.30;;
77384;SDS011;66443;49.122;8.346;2023-05-10T00:39:29;2.00;;;1.23;;
77384;SDS011;66443;49.122;8.346;2023-05-10T00:41:54;1.80;;;1.30;;
77384;SDS011;66443;49.122;8.346;2023-05-10T00:44:20;1.57;;;1.30;;
77384;SDS011;66443;49.122;8.346;2023-05-10T00:46:45;1.80;;;1.30;;
77384;SDS011;66443;49.122;8.346;2023-05-10T00:49:11;1.40;;;1.30;;
77384;SDS011;66443;49.122;8.346;2023-05-10T00:51:36;3.90;;;1.70;;
77384;SDS011;66443;49.122;8.346;2023-05-10T00:54:01;1.30;;;1.30;;
77384;SDS011;66443;49.122;8.346;2023-05-10T00:56:27;4.63;;;1.50;;
77384;SDS011;66443;49.122;8.346;2023-05-10T00:58:54;1.80;;;1.70;;
77384;SDS011;66443;49.122;8.346;2023-05-10T01:01:19;1.97;;;1.87;;
77384;SDS011;66443;49.122;8.346;2023-05-10T01:03:44;4.67;;;1.97;;
77384;SDS011;66443;49.122;8.346;2023-05-10T01:06:10;2.27;;;2.07;;
77384;SDS011;66443;49.122;8.346;2023-05-10T01:08:36;2.50;;;2.00;;
77384;SDS011;66443;49.122;8.346;2023-05-10T01:11:01;2.07;;;1.97;;
77384;SDS011;66443;49.122;8.346;2023-05-10T01:13:30;1.93;;;1.83;;
77384;SDS011;66443;49.122;8.346;2023-05-10T01:15:56;2.10;;;2.00;;
77384;SDS011;66443;49.122;8.346;2023-05-10T01:18:22;2.40;;;2.20;;
77384;SDS011;66443;49.122;8.346;2023-05-10T01:20:48;2.73;;;2.00;;
77384;SDS011;66443;49.122;8.346;2023-05-10T01:25:58;2.23;;;2.10;;
77384;SDS011;66443;49.122;8.346;2023-05-10T01:28:55;2.93;;;2.37;;
77384;SDS011;66443;49.122;8.346;2023-05-10T01:33:46;2.40;;;2.30;;
77384;SDS011;66443;49.122;8.346;2023-05-10T01:36:18;2.60;;;2.30;;
77384;SDS011;66443;49.122;8.346;2023-05-10T01:39:24;3.10;;;2.87;;
77384;SDS011;66443;49.122;8.346;2023-05-10T01:41:56;2.63;;;2.53;;
77384;SDS011;66443;49.122;8.346;2023-05-10T01:44:24;3.57;;;2.60;;
77384;SDS011;66443;49.122;8.346;2023-05-10T01:46:57;3.10;;;2.90;;
77384;SDS011;66443;49.122;8.346;2023-05-10T01:49:24;2.50;;;2.40;;
77384;SDS011;66443;49.122;8.346;2023-05-10T01:51:52;2.97;;;2.77;;
77384;SDS011;66443;49.122;8.346;2023-05-10T01:54:19;2.80;;;2.63;;
77384;SDS011;66443;49.122;8.346;2023-05-10T01:56:45;2.53;;;2.43;;
77384;SDS011;66443;49.122;8.346;2023-05-10T01:59:13;2.57;;;2.40;;
77384;SDS011;66443;49.122;8.346;2023-05-10T02:01:40;2.77;;;2.67;;
77384;SDS011;66443;49.122;8.346;2023-05-10T02:04:07;2.73;;;2.53;;
77384;SDS011;66443;49.122;8.346;2023-05-10T02:06:32;3.10;;;2.80;;
77384;SDS011;66443;49.122;8.346;2023-05-10T02:08:58;3.40;;;2.83;;
77384;SDS011;66443;49.122;8.346;2023-05-10T02:11:25;2.73;;;2.53;;
77384;SDS011;66443;49.122;8.346;2023-05-10T02:13:51;2.97;;;2.67;;
77384;SDS011;66443;49.122;8.346;2023-05-10T02:16:18;3.73;;;2.93;;
77384;SDS011;66443;49.122;8.346;2023-05-10T02:18:44;2.90;;;2.73;;
77384;SDS011;66443;49.122;8.346;2023-05-10T02:21:10;2.93;;;2.73;;
77384;SDS011;66443;49.122;8.346;2023-05-10T02:23:36;3.23;;;2.93;;
77384;SDS011;66443;49.122;8.346;2023-05-10T02:26:02;3.50;;;3.20;;
77384;SDS011;66443;49.122;8.346;2023-05-10T02:28:28;3.60;;;3.30;;
77384;SDS011;66443;49.122;8.346;2023-05-10T02:30:54;3.93;;;3.63;;
77384;SDS011;66443;49.122;8.346;2023-05-10T02:33:20;4.00;;;3.70;;
77384;SDS011;66443;49.122;8.346;2023-05-10T02:35:46;5.73;;;3.50;;
77384;SDS011;66443;49.122;8.346;2023-05-10T02:38:11;3.67;;;3.47;;
77384;SDS011;66443;49.122;8.346;2023-05-10T02:40:38;4.57;;;4.27;;
77384;SDS011;66443;49.122;8.346;2023-05-10T02:43:05;4.73;;;4.43;;
77384;SDS011;66443;49.122;8.346;2023-05-10T02:45:31;4.90;;;4.60;;
77384;SDS011;66443;49.122;8.346;2023-05-10T02:47:57;4.60;;;4.30;;
77384;SDS011;66443;49.122;8.346;2023-05-10T02:50:23;5.70;;;4.50;;
77384;SDS011;66443;49.122;8.346;2023-05-10T02:52:51;4.70;;;4.30;;
77384;SDS011;66443;49.122;8.346;2023-05-10T02:55:19;4.87;;;4.47;;
77384;SDS011;66443;49.122;8.346;2023-05-10T02:57:51;5.30;;;4.90;;
77384;SDS011;66443;49.122;8.346;2023-05-10T03:00:16;5.37;;;4.87;;
77384;SDS011;66443;49.122;8.346;2023-05-10T03:02:41;4.87;;;4.57;;
77384;SDS011;66443;49.122;8.346;2023-05-10T03:05:07;5.90;;;5.50;;
77384;SDS011;66443;49.122;8.346;2023-05-10T03:07:32;5.80;;;5.40;;
77384;SDS011;66443;49.122;8.346;2023-05-10T03:09:58;5.57;;;5.17;;
77384;SDS011;66443;49.122;8.346;2023-05-10T03:15:00;6.37;;;5.40;;
77384;SDS011;66443;49.122;8.346;2023-05-10T03:20:03;5.87;;;5.37;;
77384;SDS011;66443;49.122;8.346;2023-05-10T03:22:31;6.10;;;5.60;;
77384;SDS011;66443;49.122;8.346;2023-05-10T03:24:56;5.90;;;5.37;;
77384;SDS011;66443;49.122;8.346;2023-05-10T03:27:23;6.10;;;5.67;;
77384;SDS011;66443;49.122;8.346;2023-05-10T03:29:49;6.83;;;6.30;;
77384;SDS011;66443;49.122;8.346;2023-05-10T03:32:16;6.77;;;6.07;;
77384;SDS011;66443;49.122;8.346;2023-05-10T03:34:41;6.70;;;5.73;;
77384;SDS011;66443;49.122;8.346;2023-05-10T03:37:06;6.90;;;6.30;;
77384;SDS011;66443;49.122;8.346;2023-05-10T03:39:31;7.07;;;6.57;;
77384;SDS011;66443;49.122;8.346;2023-05-10T03:41:57;6.87;;;6.37;;
77384;SDS011;66443;49.122;8.346;2023-05-10T03:44:22;7.20;;;6.60;;
77384;SDS011;66443;49.122;8.346;2023-05-10T03:46:47;7.13;;;6.53;;
77384;SDS011;66443;49.122;8.346;2023-05-10T03:49:12;8.03;;;7.43;;
77384;SDS011;66443;49.122;8.346;2023-05-10T03:51:38;7.07;;;6.57;;
77384;SDS011;66443;49.122;8.346;2023-05-10T03:54:03;8.07;;;7.40;;
77384;SDS011;66443;49.122;8.346;2023-05-10T03:56:28;8.23;;;7.60;;
77384;SDS011;66443;49.122;8.346;2023-05-10T03:58:53;8.50;;;7.80;;
77384;SDS011;66443;49.122;8.346;2023-05-10T04:01:18;13.23;;;9.70;;
77384;SDS011;66443;49.122;8.346;2023-05-10T04:03:44;9.60;;;8.70;;
77384;SDS011;66443;49.122;8.346;2023-05-10T04:06:12;9.43;;;8.63;;
77384;SDS011;66443;49.122;8.346;2023-05-10T04:08:37;8.87;;;8.07;;
77384;SDS011;66443;49.122;8.346;2023-05-10T04:11:10;10.50;;;9.50;;
77384;SDS011;66443;49.122;8.346;2023-05-10T04:13:35;10.17;;;9.17;;
77384;SDS011;66443;49.122;8.346;2023-05-10T04:16:01;10.97;;;9.97;;
77384;SDS011;66443;49.122;8.346;2023-05-10T04:18:26;9.53;;;8.73;;
77384;SDS011;66443;49.122;8.346;2023-05-10T04:20:51;10.40;;;9.50;;
77384;SDS011;66443;49.122;8.346;2023-05-10T04:23:16;9.57;;;8.50;;
77384;SDS011;66443;49.122;8.346;2023-05-10T04:25:42;9.73;;;8.83;;
77384;SDS011;66443;49.122;8.346;2023-05-10T04:28:07;10.33;;;9.53;;
77384;SDS011;66443;49.122;8.346;2023-05-10T04:30:32;10.27;;;9.27;;
77384;SDS011;66443;49.122;8.346;2023-05-10T04:32:57;10.53;;;9.57;;
77384;SDS011;66443;49.122;8.346;2023-05-10T04:35:23;10.73;;;9.73;;
77384;SDS011;66443;49.122;8.346;2023-05-10T04:37:48;9.97;;;8.97;;
77384;SDS011;66443;49.122;8.346;2023-05-10T04:40:13;9.73;;;8.83;;
77384;SDS011;66443;49.122;8.346;2023-05-10T04:42:39;11.00;;;10.10;;
77384;SDS011;66443;49.122;8.346;2023-05-10T04:45:06;12.97;;;9.60;;
77384;SDS011;66443;49.122;8.346;2023-05-10T04:47:31;10.57;;;9.77;;
77384;SDS011;66443;49.122;8.346;2023-05-10T04:49:57;10.83;;;9.67;;
77384;SDS011;66443;49.122;8.346;2023-05-10T04:52:22;10.27;;;9.47;;
77384;SDS011;66443;49.122;8.346;2023-05-10T04:54:47;10.70;;;9.83;;
77384;SDS011;66443;49.122;8.346;2023-05-10T04:57:13;10.73;;;9.73;;
77384;SDS011;66443;49.122;8.346;2023-05-10T04:59:38;9.87;;;9.00;;
77384;SDS011;66443;49.122;8.346;2023-05-10T05:02:03;12.10;;;9.50;;
77384;SDS011;66443;49.122;8.346;2023-05-10T05:04:29;9.67;;;8.73;;
77384;SDS011;66443;49.122;8.346;2023-05-10T05:06:55;9.30;;;8.60;;
77384;SDS011;66443;49.122;8.346;2023-05-10T05:09:20;9.77;;;9.07;;
77384;SDS011;66443;49.122;8.346;2023-05-10T05:11:45;9.50;;;8.80;;
77384;SDS011;66443;49.122;8.346;2023-05-10T05:14:10;7.40;;;6.80;;
77384;SDS011;66443;49.122;8.346;2023-05-10T05:16:36;8.23;;;7.70;;
77384;SDS011;66443;49.122;8.346;2023-05-10T05:19:01;7.13;;;6.63;;
77384;SDS011;66443;49.122;8.346;2023-05-10T05:21:26;7.43;;;6.73;;
77384;SDS011;66443;49.122;8.346;2023-05-10T05:23:52;6.73;;;6.23;;
77384;SDS011;66443;49.122;8.346;2023-05-10T05:26:17;6.53;;;6.07;;
77384;SDS011;66443;49.122;8.346;2023-05-10T05:28:42;6.80;;;6.30;;
77384;SDS011;66443;49.122;8.346;2023-05-10T05:31:07;7.83;;;6.97;;
77384;SDS011;66443;49.122;8.346;2023-05-10T05:33:33;7.90;;;7.30;;
77384;SDS011;66443;49.122;8.346;2023-05-10T05:36:00;7.50;;;6.90;;
77384;SDS011;66443;49.122;8.346;2023-05-10T05:38:25;7.27;;;6.77;;
77384;SDS011;66443;49.122;8.346;2023-05-10T05:40:51;7.73;;;7.10;;
77384;SDS011;66443;49.122;8.346;2023-05-10T05:43:16;8.10;;;7.40;;
77384;SDS011;66443;49.122;8.346;2023-05-10T05:45:41;7.53;;;6.93;;
77384;SDS011;66443;49.122;8.346;2023-05-10T05:48:06;7.23;;;6.73;;
77384;SDS011;66443;49.122;8.346;2023-05-10T05:50:31;7.47;;;6.97;;
77384;SDS011;66443;49.122;8.346;2023-05-10T05:52:57;7.30;;;6.80;;
77384;SDS011;66443;49.122;8.346;2023-05-10T05:55:22;7.80;;;7.17;;
77384;SDS011;66443;49.122;8.346;2023-05-10T05:57:47;6.90;;;6.40;;
77384;SDS011;66443;49.122;8.346;2023-05-10T06:00:12;6.90;;;6.40;;
77384;SDS011;66443;49.122;8.346;2023-05-10T06:02:38;6.90;;;6.20;;
77384;SDS011;66443;49.122;8.346;2023-05-10T06:05:03;6.73;;;6.10;;
77384;SDS011;66443;49.122;8.346;2023-05-10T06:07:28;6.00;;;5.60;;
77384;SDS011;66443;49.122;8.346;2023-05-10T06:09:54;8.77;;;5.43;;
77384;SDS011;66443;49.122;8.346;2023-05-10T06:12:19;5.80;;;5.50;;
77384;SDS011;66443;49.122;8.346;2023-05-10T06:14:45;6.83;;;6.33;;
77384;SDS011;66443;49.122;8.346;2023-05-10T06:17:10;5.63;;;5.23;;
77384;SDS011;66443;49.122;8.346;2023-05-10T06:19:35;5.00;;;4.60;;
77384;SDS011;66443;49.122;8.346;2023-05-10T06:22:01;4.73;;;4.33;;
77384;SDS011;66443;49.122;8.346;2023-05-10T06:24:26;4.90;;;4.50;;
77384;SDS011;66443;49.122;8.346;2023-05-10T06:26:52;4.73;;;4.30;;
77384;SDS011;66443;49.122;8.346;2023-05-10T06:29:17;4.40;;;4.10;;
77384;SDS011;66443;49.122;8.346;2023-05-10T06:31:42;5.03;;;4.53;;
77384;SDS011;66443;49.122;8.346;2023-05-10T06:34:07;3.47;;;3.27;;
77384;SDS011;66443;49.122;8.346;2023-05-10T06:36:33;3.17;;;2.97;;
77384;SDS011;66443;49.122;8.346;2023-05-10T06:38:59;6.10;;;3.40;;
77384;SDS011;66443;49.122;8.346;2023-05-10T06:41:24;3.83;;;3.63;;
77384;SDS011;66443;49.122;8.346;2023-05-10T06:43:49;3.40;;;3.10;;
77384;SDS011;66443;49.122;8.346;2023-05-10T06:46:14;3.30;;;3.00;;
77384;SDS011;66443;49.122;8.346;2023-05-10T06:48:39;3.10;;;2.90;;
77384;SDS011;66443;49.122;8.346;2023-05-10T06:51:05;3.00;;;2.70;;
77384;SDS011;66443;49.122;8.346;2023-05-10T06:53:30;2.83;;;2.63;;
77384;SDS011;66443;49.122;8.346;2023-05-10T06:55:55;3.13;;;2.93;;
77384;SDS011;66443;49.122;8.346;2023-05-10T06:58:21;2.70;;;2.50;;
77384;SDS011;66443;49.122;8.346;2023-05-10T07:00:46;2.90;;;2.70;;
77384;SDS011;66443;49.122;8.346;2023-05-10T07:03:12;2.20;;;2.10;;
77384;SDS011;66443;49.122;8.346;2023-05-10T07:05:37;2.57;;;2.37;;
77384;SDS011;66443;49.122;8.346;2023-05-10T07:08:02;2.90;;;2.57;;
77384;SDS011;66443;49.122;8.346;2023-05-10T07:10:27;4.70;;;2.03;;
77384;SDS011;66443;49.122;8.346;2023-05-10T07:12:53;1.90;;;1.80;;
77384;SDS011;66443;49.122;8.346;2023-05-10T07:15:18;2.10;;;2.00;;
77384;SDS011;66443;49.122;8.346;2023-05-10T07:17:43;2.57;;;1.90;;
77384;SDS011;66443;49.122;8.346;2023-05-10T07:20:08;2.07;;;1.97;;
77384;SDS011;66443;49.122;8.346;2023-05-10T07:22:34;1.80;;;1.70;;
77384;SDS011;66443;49.122;8.346;2023-05-10T07:24:59;1.60;;;1.50;;
77384;SDS011;66443;49.122;8.346;2023-05-10T07:27:24;1.77;;;1.67;;
77384;SDS011;66443;49.122;8.346;2023-05-10T07:29:50;1.40;;;1.30;;
77384;SDS011;66443;49.122;8.346;2023-05-10T07:32:15;3.73;;;1.40;;
77384;SDS011;66443;49.122;8.346;2023-05-10T07:34:40;1.50;;;1.40;;
77384;SDS011;66443;49.122;8.346;2023-05-10T07:37:06;1.50;;;1.40;;
77384;SDS011;66443;49.122;8.346;2023-05-10T07:39:32;2.30;;;1.93;;
77384;SDS011;66443;49.122;8.346;2023-05-10T07:41:57;1.57;;;1.47;;
77384;SDS011;66443;49.122;8.346;2023-05-10T07:44:22;2.23;;;1.43;;
77384;SDS011;66443;49.122;8.346;2023-05-10T07:46:48;3.70;;;1.60;;
77384;SDS011;66443;49.122;8.346;2023-05-10T07:49:13;1.57;;;1.47;;
77384;SDS011;66443;49.122;8.346;2023-05-10T07:51:38;1.60;;;1.50;;
77384;SDS011;66443;49.122;8.346;2023-05-10T07:54:03;1.43;;;1.33;;
77384;SDS011;66443;49.122;8.346;2023-05-10T07:56:29;2.10;;;1.37;;
77384;SDS011;66443;49.122;8.346;2023-05-10T07:58:56;1.70;;;1.60;;
77384;SDS011;66443;49.122;8.346;2023-05-10T08:01:22;1.50;;;1.40;;
77384;SDS011;66443;49.122;8.346;2023-05-10T08:03:47;1.60;;;1.50;;
77384;SDS011;66443;49.122;8.346;2023-05-10T08:06:13;1.40;;;1.40;;
77384;SDS011;66443;49.122;8.346;2023-05-10T08:08:39;1.27;;;1.27;;
77384;SDS011;66443;49.122;8.346;2023-05-10T08:11:05;1.53;;;1.13;;
77384;SDS011;66443;49.122;8.346;2023-05-10T08:13:30;1.60;;;1.50;;
77384;SDS011;66443;49.122;8.346;2023-05-10T08:15:56;1.10;;;1.10;;
77384;SDS011;66443;49.122;8.346;2023-05-10T08:18:21;1.23;;;1.20;;
77384;SDS011;66443;49.122;8.346;2023-05-10T08:20:46;1.10;;;1.10;;
77384;SDS011;66443;49.122;8.346;2023-05-10T08:23:12;2.03;;;1.20;;
77384;SDS011;66443;49.122;8.346;2023-05-10T08:25:37;1.07;;;1.07;;
77384;SDS011;66443;49.122;8.346;2023-05-10T08:28:02;1.63;;;1.00;;
77384;SDS011;66443;49.122;8.346;2023-05-10T08:30:27;1.40;;;1.30;;
77384;SDS011;66443;49.122;8.346;2023-05-10T08:32:52;1.70;;;1.20;;
77384;SDS011;66443;49.122;8.346;2023-05-10T08:35:18;2.00;;;1.10;;
77384;SDS011;66443;49.122;8.346;2023-05-10T08:37:43;1.03;;;0.93;;
77384;SDS011;66443;49.122;8.346;2023-05-10T08:40:08;1.00;;;1.00;;
77384;SDS011;66443;49.122;8.346;2023-05-10T08:42:36;0.80;;;0.80;;
77384;SDS011;66443;49.122;8.346;2023-05-10T08:45:02;1.40;;;1.30;;
77384;SDS011;66443;49.122;8.346;2023-05-10T08:47:28;0.70;;;0.70;;
77384;SDS011;66443;49.122;8.346;2023-05-10T08:49:54;2.40;;;0.90;;
77384;SDS011;66443;49.122;8.346;2023-05-10T08:52:19;0.70;;;0.70;;
77384;SDS011;66443;49.122;8.346;2023-05-10T08:54:45;0.80;;;0.80;;
77384;SDS011;66443;49.122;8.346;2023-05-10T08:57:11;0.70;;;0.70;;
77384;SDS011;66443;49.122;8.346;2023-05-10T08:59:36;0.80;;;0.80;;
77384;SDS011;66443;49.122;8.346;2023-05-10T09:02:04;1.40;;;0.80;;
77384;SDS011;66443;49.122;8.346;2023-05-10T09:04:29;1.10;;;1.00;;
77384;SDS011;66443;49.122;8.346;2023-05-10T09:06:55;0.80;;;0.80;;
77384;SDS011;66443;49.122;8.346;2023-05-10T09:09:20;1.10;;;1.00;;
77384;SDS011;66443;49.122;8.346;2023-05-10T09:11:46;0.93;;;0.80;;
77384;SDS011;66443;49.122;8.346;2023-05-10T09:14:12;1.13;;;0.70;;
77384;SDS011;66443;49.122;8.346;2023-05-10T09:16:37;0.83;;;0.83;;
77384;SDS011;66443;49.122;8.346;2023-05-10T09:19:02;0.93;;;0.80;;
77384;SDS011;66443;49.122;8.346;2023-05-10T09:21:27;0.90;;;0.90;;
77384;SDS011;66443;49.122;8.346;2023-05-10T09:23:54;3.23;;;0.77;;
77384;SDS011;66443;49.122;8.346;2023-05-10T09:26:23;0.80;;;0.80;;
77384;SDS011;66443;49.122;8.346;2023-05-10T09:31:17;0.60;;;0.60;;
77384;SDS011;66443;49.122;8.346;2023-05-10T09:33:48;0.80;;;0.80;;
77384;SDS011;66443;49.122;8.346;2023-05-10T09:36:14;0.80;;;0.80;;
77384;SDS011;66443;49.122;8.346;2023-05-10T09:41:18;1.80;;;0.70;;
77384;SDS011;66443;49.122;8.346;2023-05-10T09:43:44;1.00;;;0.90;;
77384;SDS011;66443;49.122;8.346;2023-05-10T09:46:09;0.60;;;0.60;;
77384;SDS011;66443;49.122;8.346;2023-05-10T09:48:39;0.67;;;0.67;;
77384;SDS011;66443;49.122;8.346;2023-05-10T09:51:06;1.07;;;0.63;;
77384;SDS011;66443;49.122;8.346;2023-05-10T09:53:31;1.87;;;0.80;;
77384;SDS011;66443;49.122;8.346;2023-05-10T09:55:56;0.70;;;0.70;;
77384;SDS011;66443;49.122;8.346;2023-05-10T09:58:22;0.80;;;0.80;;
77384;SDS011;66443;49.122;8.346;2023-05-10T10:00:47;0.83;;;0.83;;
77384;SDS011;66443;49.122;8.346;2023-05-10T10:03:16;0.73;;;0.73;;
77384;SDS011;66443;49.122;8.346;2023-05-10T10:05:42;2.27;;;0.77;;
77384;SDS011;66443;49.122;8.346;2023-05-10T10:08:08;1.27;;;0.90;;
77384;SDS011;66443;49.122;8.346;2023-05-10T10:10:33;1.77;;;0.70;;
77384;SDS011;66443;49.122;8.346;2023-05-10T10:12:59;0.77;;;0.77;;
77384;SDS011;66443;49.122;8.346;2023-05-10T10:15:24;1.20;;;0.90;;
77384;SDS011;66443;49.122;8.346;2023-05-10T10:17:50;0.93;;;0.80;;
77384;SDS011;66443;49.122;8.346;2023-05-10T10:20:16;0.80;;;0.80;;
77384;SDS011;66443;49.122;8.346;2023-05-10T10:22:41;3.00;;;0.80;;
77384;SDS011;66443;49.122;8.346;2023-05-10T10:25:08;0.80;;;0.80;;
77384;SDS011;66443;49.122;8.346;2023-05-10T10:27:41;1.03;;;0.80;;
77384;SDS011;66443;49.122;8.346;2023-05-10T10:35:21;1.47;;;0.90;;
77384;SDS011;66443;49.122;8.346;2023-05-10T10:37:47;1.00;;;0.93;;
77384;SDS011;66443;49.122;8.346;2023-05-10T10:40:25;0.73;;;0.73;;
77384;SDS011;66443;49.122;8.346;2023-05-10T10:42:51;1.27;;;0.77;;
77384;SDS011;66443;49.122;8.346;2023-05-10T10:45:16;1.40;;;0.80;;
77384;SDS011;66443;49.122;8.346;2023-05-10T10:47:41;0.90;;;0.80;;
77384;SDS011;66443;49.122;8.346;2023-05-10T10:50:08;1.67;;;0.97;;
77384;SDS011;66443;49.122;8.346;2023-05-10T10:52:37;0.80;;;0.80;;
77384;SDS011;66443;49.122;8.346;2023-05-10T10:55:13;2.50;;;1.13;;
77384;SDS011;66443;49.122;8.346;2023-05-10T10:57:48;0.73;;;0.63;;
77384;SDS011;66443;49.122;8.346;2023-05-10T11:00:21;1.80;;;0.87;;
77384;SDS011;66443;49.122;8.346;2023-05-10T11:02:48;0.90;;;0.90;;
77384;SDS011;66443;49.122;8.346;2023-05-10T11:06:17;1.50;;;0.93;;
77384;SDS011;66443;49.122;8.346;2023-05-10T11:10:39;1.77;;;1.00;;
77384;SDS011;66443;49.122;8.346;2023-05-10T11:13:06;1.13;;;0.80;;
77384;SDS011;66443;49.122;8.346;2023-05-10T11:15:32;0.70;;;0.70;;
77384;SDS011;66443;49.122;8.346;2023-05-10T11:17:57;0.83;;;0.83;;
77384;SDS011;66443;49.122;8.346;2023-05-10T11:20:23;3.40;;;1.23;;
77384;SDS011;66443;49.122;8.346;2023-05-10T11:22:51;0.83;;;0.83;;
77384;SDS011;66443;49.122;8.346;2023-05-10T11:25:17;1.27;;;1.17;;
77384;SDS011;66443;49.122;8.346;2023-05-10T11:27:42;1.43;;;1.10;;
77384;SDS011;66443;49.122;8.346;2023-05-10T11:30:09;4.47;;;1.20;;
77384;SDS011;66443;49.122;8.346;2023-05-10T11:32:36;1.33;;;0.90;;
77384;SDS011;66443;49.122;8.346;2023-05-10T11:35:06;2.77;;;1.17;;
77384;SDS011;66443;49.122;8.346;2023-05-10T11:37:31;2.07;;;0.90;;
77384;SDS011;66443;49.122;8.346;2023-05-10T11:39:59;2.10;;;1.10;;
77384;SDS011;66443;49.122;8.346;2023-05-10T11:42:24;2.53;;;1.00;;
77384;SDS011;66443;49.122;8.346;2023-05-10T11:44:49;1.90;;;0.93;;
77384;SDS011;66443;49.122;8.346;2023-05-10T11:47:14;4.10;;;1.00;;
77384;SDS011;66443;49.122;8.346;2023-05-10T11:49:43;7.33;;;1.33;;
77384;SDS011;66443;49.122;8.346;2023-05-10T11:52:08;2.00;;;0.80;;
77384;SDS011;66443;49.122;8.346;2023-05-10T11:54:33;1.03;;;0.97;;
77384;SDS011;66443;49.122;8.346;2023-05-10T11:57:01;0.90;;;0.90;;
77384;SDS011;66443;49.122;8.346;2023-05-10T11:59:26;3.93;;;1.10;;
77384;SDS011;66443;49.122;8.346;2023-05-10T12:01:52;1.70;;;1.57;;
77384;SDS011;66443;49.122;8.346;2023-05-10T12:04:17;1.07;;;0.90;;
77384;SDS011;66443;49.122;8.346;2023-05-10T12:06:42;1.00;;;0.80;;
77384;SDS011;66443;49.122;8.346;2023-05-10T12:09:08;1.73;;;1.00;;
77384;SDS011;66443;49.122;8.346;2023-05-10T12:11:36;3.57;;;1.00;;
77384;SDS011;66443;49.122;8.346;2023-05-10T12:14:03;3.20;;;1.00;;
77384;SDS011;66443;49.122;8.346;2023-05-10T12:16:29;1.63;;;0.90;;
77384;SDS011;66443;49.122;8.346;2023-05-10T12:18:58;2.30;;;1.07;;
77384;SDS011;66443;49.122;8.346;2023-05-10T12:21:24;1.83;;;1.50;;
77384;SDS011;66443;49.122;8.346;2023-05-10T12:23:50;1.53;;;1.30;;
77384;SDS011;66443;49.122;8.346;2023-05-10T12:26:15;1.87;;;1.10;;
77384;SDS011;66443;49.122;8.346;2023-05-10T12:28:40;1.00;;;1.00;;
77384;SDS011;66443;49.122;8.346;2023-05-10T12:31:06;0.80;;;0.80;;
77384;SDS011;66443;49.122;8.346;2023-05-10T12:33:43;1.47;;;1.10;;
77384;SDS011;66443;49.122;8.346;2023-05-10T12:36:09;2.03;;;0.90;;
77384;SDS011;66443;49.122;8.346;2023-05-10T12:38:39;1.37;;;1.27;;
77384;SDS011;66443;49.122;8.346;2023-05-10T12:43:29;0.73;;;0.73;;
77384;SDS011;66443;49.122;8.346;2023-05-10T12:45:55;1.50;;;1.13;;
77384;SDS011;66443;49.122;8.346;2023-05-10T12:48:20;2.23;;;1.10;;
77384;SDS011;66443;49.122;8.346;2023-05-10T12:50:45;0.80;;;0.80;;
77384;SDS011;66443;49.122;8.346;2023-05-10T12:53:10;2.30;;;1.00;;
77384;SDS011;66443;49.122;8.346;2023-05-10T12:55:36;0.90;;;0.87;;
77384;SDS011;66443;49.122;8.346;2023-05-10T12:58:01;2.43;;;0.70;;
77384;SDS011;66443;49.122;8.346;2023-05-10T13:00:26;1.70;;;0.90;;
77384;SDS011;66443;49.122;8.346;2023-05-10T13:02:51;9.50;;;1.10;;
77384;SDS011;66443;49.122;8.346;2023-05-10T13:05:17;1.87;;;0.90;;
77384;SDS011;66443;49.122;8.346;2023-05-10T13:07:42;0.87;;;0.87;;
77384;SDS011;66443;49.122;8.346;2023-05-10T13:10:08;0.80;;;0.80;;
77384;SDS011;66443;49.122;8.346;2023-05-10T13:12:34;1.77;;;0.90;;
77384;SDS011;66443;49.122;8.346;2023-05-10T13:14:59;1.33;;;1.10;;
77384;SDS011;66443;49.122;8.346;2023-05-10T13:17:25;2.00;;;0.83;;
77384;SDS011;66443;49.122;8.346;2023-05-10T13:19:50;1.43;;;0.60;;
77384;SDS011;66443;49.122;8.346;2023-05-10T13:22:15;1.97;;;1.20;;
77384;SDS011;66443;49.122;8.346;2023-05-10T13:24:40;1.67;;;0.70;;
77384;SDS011;66443;49.122;8.346;2023-05-10T13:27:06;3.37;;;0.60;;
77384;SDS011;66443;49.122;8.346;2023-05-10T13:29:31;0.97;;;0.60;;
77384;SDS011;66443;49.122;8.346;2023-05-10T13:31:56;0.60;;;0.60;;
77384;SDS011;66443;49.122;8.346;2023-05-10T13:34:22;1.97;;;0.60;;
77384;SDS011;66443;49.122;8.346;2023-05-10T13:36:47;0.87;;;0.60;;
77384;SDS011;66443;49.122;8.346;2023-05-10T13:39:13;1.23;;;0.60;;
77384;SDS011;66443;49.122;8.346;2023-05-10T13:41:38;1.52;;;0.75;;
77384;SDS011;66443;49.122;8.346;2023-05-10T13:44:04;0.68;;;0.45;;
77384;SDS011;66443;49.122;8.346;2023-05-10T13:46:29;2.87;;;0.50;;
77384;SDS011;66443;49.122;8.346;2023-05-10T13:48:55;0.50;;;0.50;;
77384;SDS011;66443;49.122;8.346;2023-05-10T13:51:20;0.55;;;0.50;;
77384;SDS011;66443;49.122;8.346;2023-05-10T13:53:45;4.78;;;0.80;;
77384;SDS011;66443;49.122;8.346;2023-05-10T13:56:12;0.52;;;0.50;;
77384;SDS011;66443;49.122;8.346;2023-05-10T13:58:37;0.45;;;0.45;;
77384;SDS011;66443;49.122;8.346;2023-05-10T14:01:02;1.60;;;0.60;;
77384;SDS011;66443;49.122;8.346;2023-05-10T14:03:27;1.02;;;0.50;;
77384;SDS011;66443;49.122;8.346;2023-05-10T14:05:53;0.60;;;0.60;;
77384;SDS011;66443;49.122;8.346;2023-05-10T14:08:18;0.40;;;0.40;;
77384;SDS011;66443;49.122;8.346;2023-05-10T14:10:43;2.67;;;0.60;;
77384;SDS011;66443;49.122;8.346;2023-05-10T14:13:08;2.00;;;0.50;;
77384;SDS011;66443;49.122;8.346;2023-05-10T14:15:33;1.33;;;0.50;;
77384;SDS011;66443;49.122;8.346;2023-05-10T14:17:59;1.52;;;0.50;;
77384;SDS011;66443;49.122;8.346;2023-05-10T14:20:24;0.50;;;0.50;;
77384;SDS011;66443;49.122;8.346;2023-05-10T14:22:49;0.73;;;0.40;;
77384;SDS011;66443;49.122;8.346;2023-05-10T14:25:14;0.43;;;0.43;;
77384;SDS011;66443;49.122;8.346;2023-05-10T14:27:40;0.50;;;0.50;;
77384;SDS011;66443;49.122;8.346;2023-05-10T14:30:05;0.55;;;0.55;;
77384;SDS011;66443;49.122;8.346;2023-05-10T14:32:31;3.72;;;0.60;;
77384;SDS011;66443;49.122;8.346;2023-05-10T14:34:57;0.70;;;0.70;;
77384;SDS011;66443;49.122;8.346;2023-05-10T14:37:22;0.68;;;0.43;;
77384;SDS011;66443;49.122;8.346;2023-05-10T14:39:47;0.65;;;0.50;;
77384;SDS011;66443;49.122;8.346;2023-05-10T14:42:12;1.35;;;0.50;;
77384;SDS011;66443;49.122;8.346;2023-05-10T14:44:37;0.90;;;0.50;;
77384;SDS011;66443;49.122;8.346;2023-05-10T14:47:03;1.33;;;0.37;;
77384;SDS011;66443;49.122;8.346;2023-05-10T14:49:28;0.50;;;0.50;;
77384;SDS011;66443;49.122;8.346;2023-05-10T14:51:54;0.75;;;0.50;;
77384;SDS011;66443;49.122;8.346;2023-05-10T14:54:19;0.73;;;0.73;;
77384;SDS011;66443;49.122;8.346;2023-05-10T14:56:44;2.27;;;0.40;;
77384;SDS011;66443;49.122;8.346;2023-05-10T14:59:10;0.95;;;0.50;;
77384;SDS011;66443;49.122;8.346;2023-05-10T15:01:35;0.90;;;0.40;;
77384;SDS011;66443;49.122;8.346;2023-05-10T15:04:02;0.80;;;0.60;;
77384;SDS011;66443;49.122;8.346;2023-05-10T15:06:31;0.75;;;0.50;;